Colorado Star — 9HA2189 — position and weather

sailwx.info

Track history (hours):
 
Tides and Currents Weather Stations Pressure Air Temp Water Temp Dewpoint Dewpoint Depression Visibility Wind Speed Wind Dir Waves Ship Positions

Colorado Star

Last reported at 2015-Jul-06 00:32 UTC. Time now 2015-Jul-06 00:59 UTC.
Position N 51°57' E 003°47'.

Length 128 m; draft 8.2 m.

Type: Ship. MMSI: 248127000.

Date/timePositionNaut miles runAvg speedWind from/ knotsBaromVisibWave heightAir tempDewpointWater temp
2015-Jul-06 00:32N 51°57' E 003°47'0 0.3
2015-Jul-05 23:33N 51°57' E 003°47'10 9.2
2015-Jul-05 22:29N 51°56' E 003°31'1111.0
2015-Jul-05 21:31N 51°53' E 003°14'1111.6
2015-Jul-05 20:33N 51°50' E 002°57'3912.5
2015-Jul-05 17:27N 51°25' E 002°09'1213.3
2015-Jul-05 16:33N 51°14' E 002°03'1514.6
2015-Jul-05 15:33N 51°05' E 001°44'1515.2
2015-Jul-05 14:33N 50°54' E 001°28'10612.6
2015-Jul-05 06:11N 50°10' W 001°03'610.0
2015-Jul-05 05:33N 50°08' W 001°13'9 8.7
2015-Jul-05 04:33N 50°06' W 001°26'8 8.1
2015-Jul-05 03:33N 50°04' W 001°38'8 8.2
2015-Jul-05 02:31N 50°02' W 001°51'9 9.4
2015-Jul-05 01:33N 49°59' W 002°05'3612.1
2015-Jul-04 22:33N 49°51' W 003°00'1513.2
2015-Jul-04 21:22N 49°51' W 003°24'154 8.2
2015-Jul-04 02:33N 51°53' W 005°53'1313.5
2015-Jul-04 01:33N 52°05' W 005°45'1312.6
2015-Jul-04 00:33N 52°17' W 005°38'10210.2
2015-Jul-03 14:33N 53°34' W 003°47'1313.1
2015-Jul-03 13:33N 53°33' W 003°25'1211.5
2015-Jul-03 12:33N 53°30' W 003°06'1110.7
2015-Jul-03 11:33N 53°21' W 002°58'2 2.3
2015-Jul-03 10:33N 53°19' W 002°56'3 2.7
2015-Jul-03 09:33N 53°17' W 002°52'0 0.1
2015-Jul-03 08:31N 53°17' W 002°52'0 0.0
2015-Jul-03 07:31N 53°17' W 002°52'0 0.0
2015-Jul-03 06:31N 53°17' W 002°52'0 0.0
2015-Jul-03 05:31N 53°17' W 002°52'0 0.0
2015-Jul-03 04:31N 53°17' W 002°52'0 0.0
2015-Jul-03 03:31N 53°17' W 002°52'0 0.0
2015-Jul-03 02:31N 53°17' W 002°52'0 0.0
2015-Jul-03 01:31N 53°17' W 002°52'0 0.0
2015-Jul-03 00:31N 53°17' W 002°52'0 0.0
2015-Jul-02 23:31N 53°17' W 002°52'0 0.0
2015-Jul-02 22:31N 53°17' W 002°52'0 0.0
2015-Jul-02 21:31N 53°17' W 002°52'0 0.0
2015-Jul-02 20:31N 53°17' W 002°52'0 0.0
2015-Jul-02 19:31N 53°17' W 002°52'0 0.0
2015-Jul-02 18:31N 53°17' W 002°52'0 0.0
2015-Jul-02 17:31N 53°17' W 002°52'0 0.0
2015-Jul-02 16:31N 53°17' W 002°52'0 0.0
2015-Jul-02 15:31N 53°17' W 002°52'0 0.0
2015-Jul-02 14:28N 53°17' W 002°52'0 0.0
2015-Jul-02 13:19N 53°17' W 002°52'0 0.0
2015-Jul-02 12:31N 53°17' W 002°52'0 0.0
2015-Jul-02 11:31N 53°17' W 002°52'0 0.0
2015-Jul-02 10:19N 53°17' W 002°52'0 0.0
2015-Jul-02 09:31N 53°17' W 002°52'0 0.0
2015-Jul-02 08:31N 53°17' W 002°52'0 0.0
2015-Jul-02 07:31N 53°17' W 002°52'0 0.0
2015-Jul-02 06:31N 53°17' W 002°52'0 0.0
2015-Jul-02 05:31N 53°17' W 002°52'0 0.0
2015-Jul-02 04:31N 53°17' W 002°52'0 0.0
2015-Jul-02 03:31N 53°17' W 002°52'0 0.0
2015-Jul-02 02:25N 53°17' W 002°52'0 0.0
2015-Jul-02 01:31N 53°17' W 002°52'0 0.0
2015-Jul-02 00:31N 53°17' W 002°52'0 0.0
2015-Jul-01 23:31N 53°17' W 002°52'0 0.0
2015-Jul-01 22:31N 53°17' W 002°52'0 0.0
2015-Jul-01 21:31N 53°17' W 002°52'0 0.0
2015-Jul-01 20:31N 53°17' W 002°52'0 0.0
2015-Jul-01 19:28N 53°17' W 002°52'0 0.0
2015-Jul-01 18:31N 53°17' W 002°52'0 0.0
2015-Jul-01 17:31N 53°17' W 002°52'0 0.0
2015-Jul-01 16:31N 53°17' W 002°52'0 0.0
2015-Jul-01 15:31N 53°17' W 002°52'0 0.0
2015-Jul-01 14:31N 53°17' W 002°52'0 0.0
2015-Jul-01 13:31N 53°17' W 002°52'0 0.4
2015-Jul-01 12:33N 53°17' W 002°53'3 3.4
2015-Jul-01 11:33N 53°19' W 002°57'3 3.2
2015-Jul-01 10:33N 53°22' W 002°59'9 9.2
2015-Jul-01 09:33N 53°30' W 003°06'6 6.1
2015-Jul-01 08:33N 53°31' W 003°17'6 6.0
2015-Jul-01 07:33N 53°29' W 003°26'0 0.1
2015-Jul-01 06:20N 53°29' W 003°26'0 0.0
2015-Jul-01 05:32N 53°29' W 003°26'0 0.0
2015-Jul-01 04:32N 53°29' W 003°26'0 0.0
2015-Jul-01 03:32N 53°29' W 003°26'0 0.0
2015-Jul-01 02:32N 53°29' W 003°26'0 0.0
2015-Jul-01 01:32N 53°29' W 003°26'0 0.0
2015-Jul-01 00:29N 53°29' W 003°26'0 0.0
2015-Jun-30 23:32N 53°29' W 003°26'0 0.0
2015-Jun-30 22:32N 53°29' W 003°26'0 0.1
2015-Jun-30 21:32N 53°29' W 003°25'0 0.0
2015-Jun-30 20:32N 53°29' W 003°25'0 0.0
2015-Jun-30 19:32N 53°29' W 003°25'0 0.0
2015-Jun-30 18:20N 53°29' W 003°25'0 0.0
2015-Jun-30 17:32N 53°29' W 003°25'0 0.0
2015-Jun-30 16:32N 53°29' W 003°25'0 0.1
2015-Jun-30 15:32N 53°29' W 003°26'3 3.2
2015-Jun-30 14:33N 53°31' W 003°30'1111.4
2015-Jun-30 13:33N 53°30' W 003°49'2210.9
2015-Jun-30 11:33N 53°29' W 004°25'2110.4
2015-Jun-30 09:31N 53°16' W 004°52'1313.7
2015-Jun-30 08:33N 53°04' W 005°02'3015.0
2015-Jun-30 06:32N 52°35' W 005°18'1515.3
2015-Jun-30 05:33N 52°21' W 005°26'1514.6
2015-Jun-30 04:33N 52°08' W 005°35'1413.9
2015-Jun-30 03:33N 51°55' W 005°43'1513.2
2015-Jun-30 02:26N 51°40' W 005°49'1011.0
2015-Jun-30 01:32N 51°35' W 005°36'1111.3
2015-Jun-30 00:33N 51°30' W 005°20'7913.2
2015-Jun-29 18:33N 51°23' W 003°13'5 5.1
2015-Jun-29 17:33N 51°27' W 003°09'0 0.0
2015-Jun-28 15:04N 51°27' W 003°10'92 8.4
2015-Jun-28 04:07N 50°49' W 005°23'712.0
2015-Jun-28 03:33N 50°43' W 005°29'1212.3
2015-Jun-28 02:33N 50°33' W 005°41'94 7.8
2015-Jun-27 14:31N 49°58' W 003°24'1010.9
2015-Jun-27 13:33N 49°59' W 003°08'1311.4
2015-Jun-27 12:26N 50°02' W 002°49'1112.3
2015-Jun-27 11:33N 50°05' W 002°33'10711.9
2015-Jun-27 02:33N 50°33' E 000°08'1111.4
2015-Jun-27 01:33N 50°36' E 000°26'1211.9
2015-Jun-27 00:33N 50°42' E 000°42'1212.0
2015-Jun-26 23:33N 50°49' E 000°58'1511.4
2015-Jun-26 22:12N 50°59' E 001°17'710.6
2015-Jun-26 21:33N 51°03' E 001°25'10 9.8
2015-Jun-26 20:33N 51°09' E 001°37'9 9.4
2015-Jun-26 19:33N 51°16' E 001°47'1110.8
2015-Jun-26 18:33N 51°26' E 001°55'1111.4
2015-Jun-26 17:33N 51°34' E 002°07'1211.8
2015-Jun-26 16:33N 51°43' E 002°20'1211.9
2015-Jun-26 15:33N 51°52' E 002°32'1212.1
2015-Jun-26 14:33N 52°04' E 002°38'1211.9
2015-Jun-26 13:33N 52°15' E 002°44'1211.5
2015-Jun-26 12:33N 52°25' E 002°52'1111.0
2015-Jun-26 11:33N 52°35' E 003°00'1110.6
2015-Jun-26 10:33N 52°45' E 003°08'1010.4
2015-Jun-26 09:33N 52°54' E 003°15'1110.7
2015-Jun-26 08:33N 53°04' E 003°21'1111.3
2015-Jun-26 07:33N 53°15' E 003°26'1211.8
2015-Jun-26 06:33N 53°27' E 003°31'  
Track history (hours):
 
Tides and Currents Weather Stations Pressure Air Temp Water Temp Dewpoint Dewpoint Depression Visibility Wind Speed Wind Dir Waves Ship Positions

Colorado Star

Last reported at 2015-Jul-06 00:32 UTC. Time now 2015-Jul-06 00:59 UTC.
Position N 51°57' E 003°47'.

Length 128 m; draft 8.2 m.

Type: Ship. MMSI: 248127000.

Date/timePositionNaut miles runAvg speedWind from/ knotsBaromVisibWave heightAir tempDewpointWater temp
2015-Jul-06 00:32N 51°57' E 003°47'0 0.3
2015-Jul-05 23:33N 51°57' E 003°47'10 9.2
2015-Jul-05 22:29N 51°56' E 003°31'1111.0
2015-Jul-05 21:31N 51°53' E 003°14'1111.6
2015-Jul-05 20:33N 51°50' E 002°57'3912.5
2015-Jul-05 17:27N 51°25' E 002°09'1213.3
2015-Jul-05 16:33N 51°14' E 002°03'1514.6
2015-Jul-05 15:33N 51°05' E 001°44'1515.2
2015-Jul-05 14:33N 50°54' E 001°28'10612.6
2015-Jul-05 06:11N 50°10' W 001°03'610.0
2015-Jul-05 05:33N 50°08' W 001°13'9 8.7
2015-Jul-05 04:33N 50°06' W 001°26'8 8.1
2015-Jul-05 03:33N 50°04' W 001°38'8 8.2
2015-Jul-05 02:31N 50°02' W 001°51'9 9.4
2015-Jul-05 01:33N 49°59' W 002°05'3612.1
2015-Jul-04 22:33N 49°51' W 003°00'1513.2
2015-Jul-04 21:22N 49°51' W 003°24'154 8.2
2015-Jul-04 02:33N 51°53' W 005°53'1313.5
2015-Jul-04 01:33N 52°05' W 005°45'1312.6
2015-Jul-04 00:33N 52°17' W 005°38'10210.2
2015-Jul-03 14:33N 53°34' W 003°47'1313.1
2015-Jul-03 13:33N 53°33' W 003°25'1211.5
2015-Jul-03 12:33N 53°30' W 003°06'1110.7
2015-Jul-03 11:33N 53°21' W 002°58'2 2.3
2015-Jul-03 10:33N 53°19' W 002°56'3 2.7
2015-Jul-03 09:33N 53°17' W 002°52'0 0.1
2015-Jul-03 08:31N 53°17' W 002°52'0 0.0
2015-Jul-03 07:31N 53°17' W 002°52'0 0.0
2015-Jul-03 06:31N 53°17' W 002°52'0 0.0
2015-Jul-03 05:31N 53°17' W 002°52'0 0.0
2015-Jul-03 04:31N 53°17' W 002°52'0 0.0
2015-Jul-03 03:31N 53°17' W 002°52'0 0.0
2015-Jul-03 02:31N 53°17' W 002°52'0 0.0
2015-Jul-03 01:31N 53°17' W 002°52'0 0.0
2015-Jul-03 00:31N 53°17' W 002°52'0 0.0
2015-Jul-02 23:31N 53°17' W 002°52'0 0.0
2015-Jul-02 22:31N 53°17' W 002°52'0 0.0
2015-Jul-02 21:31N 53°17' W 002°52'0 0.0
2015-Jul-02 20:31N 53°17' W 002°52'0 0.0
2015-Jul-02 19:31N 53°17' W 002°52'0 0.0
2015-Jul-02 18:31N 53°17' W 002°52'0 0.0
2015-Jul-02 17:31N 53°17' W 002°52'0 0.0
2015-Jul-02 16:31N 53°17' W 002°52'0 0.0
2015-Jul-02 15:31N 53°17' W 002°52'0 0.0
2015-Jul-02 14:28N 53°17' W 002°52'0 0.0
2015-Jul-02 13:19N 53°17' W 002°52'0 0.0
2015-Jul-02 12:31N 53°17' W 002°52'0 0.0
2015-Jul-02 11:31N 53°17' W 002°52'0 0.0
2015-Jul-02 10:19N 53°17' W 002°52'0 0.0
2015-Jul-02 09:31N 53°17' W 002°52'0 0.0
2015-Jul-02 08:31N 53°17' W 002°52'0 0.0
2015-Jul-02 07:31N 53°17' W 002°52'0 0.0
2015-Jul-02 06:31N 53°17' W 002°52'0 0.0
2015-Jul-02 05:31N 53°17' W 002°52'0 0.0
2015-Jul-02 04:31N 53°17' W 002°52'0 0.0
2015-Jul-02 03:31N 53°17' W 002°52'0 0.0
2015-Jul-02 02:25N 53°17' W 002°52'0 0.0
2015-Jul-02 01:31N 53°17' W 002°52'0 0.0
2015-Jul-02 00:31N 53°17' W 002°52'0 0.0
2015-Jul-01 23:31N 53°17' W 002°52'0 0.0
2015-Jul-01 22:31N 53°17' W 002°52'0 0.0
2015-Jul-01 21:31N 53°17' W 002°52'0 0.0
2015-Jul-01 20:31N 53°17' W 002°52'0 0.0
2015-Jul-01 19:28N 53°17' W 002°52'0 0.0
2015-Jul-01 18:31N 53°17' W 002°52'0 0.0
2015-Jul-01 17:31N 53°17' W 002°52'0 0.0
2015-Jul-01 16:31N 53°17' W 002°52'0 0.0
2015-Jul-01 15:31N 53°17' W 002°52'0 0.0
2015-Jul-01 14:31N 53°17' W 002°52'0 0.0
2015-Jul-01 13:31N 53°17' W 002°52'0 0.4
2015-Jul-01 12:33N 53°17' W 002°53'3 3.4
2015-Jul-01 11:33N 53°19' W 002°57'3 3.2
2015-Jul-01 10:33N 53°22' W 002°59'9 9.2
2015-Jul-01 09:33N 53°30' W 003°06'6 6.1
2015-Jul-01 08:33N 53°31' W 003°17'6 6.0
2015-Jul-01 07:33N 53°29' W 003°26'0 0.1
2015-Jul-01 06:20N 53°29' W 003°26'0 0.0
2015-Jul-01 05:32N 53°29' W 003°26'0 0.0
2015-Jul-01 04:32N 53°29' W 003°26'0 0.0
2015-Jul-01 03:32N 53°29' W 003°26'0 0.0
2015-Jul-01 02:32N 53°29' W 003°26'0 0.0
2015-Jul-01 01:32N 53°29' W 003°26'0 0.0
2015-Jul-01 00:29N 53°29' W 003°26'0 0.0
2015-Jun-30 23:32N 53°29' W 003°26'0 0.0
2015-Jun-30 22:32N 53°29' W 003°26'0 0.1
2015-Jun-30 21:32N 53°29' W 003°25'0 0.0
2015-Jun-30 20:32N 53°29' W 003°25'0 0.0
2015-Jun-30 19:32N 53°29' W 003°25'0 0.0
2015-Jun-30 18:20N 53°29' W 003°25'0 0.0
2015-Jun-30 17:32N 53°29' W 003°25'0 0.0
2015-Jun-30 16:32N 53°29' W 003°25'0 0.1
2015-Jun-30 15:32N 53°29' W 003°26'3 3.2
2015-Jun-30 14:33N 53°31' W 003°30'1111.4
2015-Jun-30 13:33N 53°30' W 003°49'2210.9
2015-Jun-30 11:33N 53°29' W 004°25'2110.4
2015-Jun-30 09:31N 53°16' W 004°52'1313.7
2015-Jun-30 08:33N 53°04' W 005°02'3015.0
2015-Jun-30 06:32N 52°35' W 005°18'1515.3
2015-Jun-30 05:33N 52°21' W 005°26'1514.6
2015-Jun-30 04:33N 52°08' W 005°35'1413.9
2015-Jun-30 03:33N 51°55' W 005°43'1513.2
2015-Jun-30 02:26N 51°40' W 005°49'1011.0
2015-Jun-30 01:32N 51°35' W 005°36'1111.3
2015-Jun-30 00:33N 51°30' W 005°20'7913.2
2015-Jun-29 18:33N 51°23' W 003°13'5 5.1
2015-Jun-29 17:33N 51°27' W 003°09'0 0.0
2015-Jun-28 15:04N 51°27' W 003°10'92 8.4
2015-Jun-28 04:07N 50°49' W 005°23'712.0
2015-Jun-28 03:33N 50°43' W 005°29'1212.3
2015-Jun-28 02:33N 50°33' W 005°41'94 7.8
2015-Jun-27 14:31N 49°58' W 003°24'1010.9
2015-Jun-27 13:33N 49°59' W 003°08'1311.4
2015-Jun-27 12:26N 50°02' W 002°49'1112.3
2015-Jun-27 11:33N 50°05' W 002°33'10711.9
2015-Jun-27 02:33N 50°33' E 000°08'1111.4
2015-Jun-27 01:33N 50°36' E 000°26'1211.9
2015-Jun-27 00:33N 50°42' E 000°42'1212.0
2015-Jun-26 23:33N 50°49' E 000°58'1511.4
2015-Jun-26 22:12N 50°59' E 001°17'710.6
2015-Jun-26 21:33N 51°03' E 001°25'10 9.8
2015-Jun-26 20:33N 51°09' E 001°37'9 9.4
2015-Jun-26 19:33N 51°16' E 001°47'1110.8
2015-Jun-26 18:33N 51°26' E 001°55'1111.4
2015-Jun-26 17:33N 51°34' E 002°07'1211.8
2015-Jun-26 16:33N 51°43' E 002°20'1211.9
2015-Jun-26 15:33N 51°52' E 002°32'1212.1
2015-Jun-26 14:33N 52°04' E 002°38'1211.9
2015-Jun-26 13:33N 52°15' E 002°44'1211.5
2015-Jun-26 12:33N 52°25' E 002°52'1111.0
2015-Jun-26 11:33N 52°35' E 003°00'1110.6
2015-Jun-26 10:33N 52°45' E 003°08'1010.4
2015-Jun-26 09:33N 52°54' E 003°15'1110.7
2015-Jun-26 08:33N 53°04' E 003°21'1111.3
2015-Jun-26 07:33N 53°15' E 003°26'1211.8
2015-Jun-26 06:33N 53°27' E 003°31'  

Dump ship's entire track history